»·PEaware :: WJA1790 CYVR-KLAS

WJA1790 :: CYVR-KLAS

FLIGHT INFORMATION

Flight Status: Arrived
Operator:
Westjet Airlines
More flights by this operator :: More flights under this callsign
Pilot: Mike H. (866)
Aircraft: BOEING 737-800
(B738)
More flights by this aircraft type
Origin: CYVR Vancouver Intl
Canada
Destination: KLAS McCarran Intl
United States
More flights between these airports :: More routes between these airports
Route: YVR J5 FMG J92 LIDAT J92 BTY SUNST3
File this flight plan on PilotEdge
Remarks: / V /
Altitude:
(Current/Filed)
37,000ft
Speed:
(Current/Filed)
440kts
Departed: 27-May-13 06:26 PM
Arrived: 27-May-13 08:39 PM
Distance/Time
Traveled:
861nm/2:12
Distance/Time
To Go:
Arrived

Flight Plot

Page will automatically refresh every two minutes.


Map Options




Map Legend


Flown Route
Filed Route
Departure Airport
Arrival Airport
Navaid (VOR, NDB)
Fix

Horizontal Profiles

Position Reports

Time Latitude Longitude Heading Altitude Ground
Speed
27-May-13 18:05 49.192111 -123.182679 7 22ft 0kts
27-May-13 18:06 49.192111 -123.182679 7 22ft 0kts
27-May-13 18:07 49.192111 -123.182679 7 21ft 0kts
27-May-13 18:08 49.192111 -123.182679 7 21ft 0kts
27-May-13 18:09 49.192111 -123.182679 7 22ft 0kts
27-May-13 18:10 49.192111 -123.182679 7 22ft 0kts
27-May-13 18:11 49.192111 -123.182679 7 22ft 0kts
27-May-13 18:12 49.192111 -123.182679 7 22ft 0kts
27-May-13 18:13 49.192111 -123.182679 7 22ft 0kts
27-May-13 18:14 49.192111 -123.182679 7 22ft 0kts
27-May-13 18:15 49.192111 -123.182679 7 22ft 0kts
27-May-13 18:16 49.192111 -123.182679 7 22ft 0kts
27-May-13 18:17 49.191887 -123.182727 7 22ft 1kts
27-May-13 18:18 49.191536 -123.182801 349 22ft 1kts
27-May-13 18:19 49.191503 -123.182437 246 22ft 0kts
27-May-13 18:20 49.191503 -123.182435 246 22ft 0kts
27-May-13 18:21 49.191501 -123.182443 246 22ft 1kts
27-May-13 18:22 49.191458 -123.186077 230 22ft 0kts
27-May-13 18:23 49.192138 -123.187601 323 22ft 16kts
27-May-13 18:24 49.193105 -123.194084 259 22ft 20kts
27-May-13 18:25 49.191935 -123.203422 254 22ft 21kts
27-May-13 18:26 49.190822 -123.204324 188 22ft 2kts
27-May-13 18:27 49.188160 -123.190969 99 22ft 109kts
27-May-13 18:28 49.179780 -123.125484 99 1865ft 167kts
27-May-13 18:29 49.142622 -123.067967 183 3382ft 263kts
27-May-13 18:30 49.082592 -123.133770 204 6166ft 285kts
27-May-13 18:31 49.008969 -123.120813 155 7255ft 274kts
27-May-13 18:32 48.939804 -123.080656 157 10623ft 268kts
27-May-13 18:33 48.862088 -123.037782 160 11977ft 330kts
27-May-13 18:34 48.772217 -122.989903 163 14028ft 352kts
27-May-13 18:35 48.677289 -122.939972 162 16061ft 374kts
27-May-13 18:36 48.577814 -122.888039 161 18232ft 384kts
27-May-13 18:37 48.475022 -122.834784 161 20118ft 397kts
27-May-13 18:38 48.369513 -122.780444 161 21959ft 404kts
27-May-13 18:39 48.262005 -122.725336 161 23520ft 413kts
27-May-13 18:40 48.152153 -122.669291 161 24922ft 422kts
27-May-13 18:41 48.039842 -122.612243 162 26512ft 423kts
27-May-13 18:42 47.928183 -122.555797 162 27972ft 430kts
27-May-13 18:43 47.813864 -122.498266 162 29184ft 438kts
27-May-13 18:44 47.699271 -122.440697 162 30705ft 434kts
27-May-13 18:45 47.584923 -122.383677 162 32048ft 433kts
27-May-13 18:46 47.469240 -122.326377 162 32990ft 441kts
27-May-13 18:47 47.349920 -122.274671 166 33773ft 449kts
27-May-13 18:48 47.229591 -122.227771 166 34992ft 446kts
27-May-13 18:49 47.109228 -122.180112 166 35815ft 451kts
27-May-13 18:50 46.987404 -122.132280 166 36436ft 459kts
27-May-13 18:51 46.863095 -122.083547 166 36813ft 466kts
27-May-13 18:52 46.738303 -122.034974 167 36819ft 461kts
27-May-13 18:53 46.614239 -121.986923 167 36822ft 463kts
27-May-13 18:54 46.488565 -121.938579 167 36824ft 469kts
27-May-13 18:55 46.362224 -121.890247 168 36835ft 470kts
27-May-13 18:56 46.236014 -121.842018 167 36845ft 468kts
27-May-13 18:57 46.110339 -121.794091 168 36846ft 467kts
27-May-13 18:58 45.984232 -121.746321 168 36845ft 467kts
27-May-13 18:59 45.858591 -121.698974 168 36846ft 467kts
27-May-13 19:00 45.732818 -121.651807 168 36846ft 469kts
27-May-13 19:01 45.606724 -121.604748 168 36845ft 467kts
27-May-13 19:02 45.480447 -121.557824 168 36846ft 471kts
27-May-13 19:03 45.354256 -121.511185 168 36839ft 465kts
27-May-13 19:04 45.228477 -121.464879 168 36839ft 466kts
27-May-13 19:05 45.103089 -121.418933 168 36839ft 466kts
27-May-13 19:06 44.977686 -121.373191 168 36839ft 466kts
27-May-13 19:07 44.851857 -121.327426 168 36853ft 472kts
27-May-13 19:08 44.723868 -121.281205 169 36859ft 474kts
27-May-13 19:09 44.596203 -121.235292 169 36859ft 474kts
27-May-13 19:10 44.468362 -121.189431 169 36859ft 474kts
27-May-13 19:11 44.340150 -121.143674 169 36860ft 474kts
27-May-13 19:12 44.212411 -121.098400 169 36859ft 474kts
27-May-13 19:13 44.084516 -121.053298 169 36859ft 474kts
27-May-13 19:14 43.956709 -121.008476 169 36859ft 474kts
27-May-13 19:15 43.828987 -120.963824 170 36869ft 473kts
27-May-13 19:16 43.700896 -120.919022 170 36869ft 473kts
27-May-13 19:17 43.573329 -120.874699 170 36881ft 474kts
27-May-13 19:18 43.445192 -120.830396 170 36899ft 475kts
27-May-13 19:19 43.316827 -120.786219 171 36899ft 477kts
27-May-13 19:20 43.188215 -120.742159 171 36904ft 477kts
27-May-13 19:21 43.059132 -120.698126 171 36953ft 480kts
27-May-13 19:22 42.929217 -120.653989 171 36969ft 480kts
27-May-13 19:23 42.799501 -120.610081 171 36978ft 483kts
27-May-13 19:24 42.669474 -120.566215 171 36979ft 482kts
27-May-13 19:25 42.539524 -120.522713 171 36979ft 481kts
27-May-13 19:26 42.409863 -120.482003 173 36975ft 477kts
27-May-13 19:27 42.279675 -120.443262 174 36989ft 479kts
27-May-13 19:28 42.149624 -120.404592 173 36990ft 477kts
27-May-13 19:29 42.020977 -120.366252 173 36989ft 474kts
27-May-13 19:30 41.892169 -120.328111 174 36989ft 474kts
27-May-13 19:31 41.763320 -120.290122 174 36996ft 478kts
27-May-13 19:32 41.632934 -120.251871 174 36999ft 478kts
27-May-13 19:33 41.502462 -120.213736 174 36998ft 480kts
27-May-13 19:34 41.370989 -120.175379 174 37010ft 489kts
27-May-13 19:35 41.238444 -120.137000 174 37009ft 487kts
27-May-13 19:36 41.105768 -120.098679 174 37009ft 489kts
27-May-13 19:37 40.973040 -120.060500 174 37020ft 489kts
27-May-13 19:38 40.840208 -120.022498 174 37026ft 489kts
27-May-13 19:39 40.707185 -119.984686 174 37033ft 491kts
27-May-13 19:40 40.573181 -119.946743 174 37040ft 491kts
27-May-13 19:41 40.439399 -119.908883 174 37062ft 492kts
27-May-13 19:42 40.305404 -119.871116 174 37070ft 495kts
27-May-13 19:43 40.170946 -119.833335 174 37071ft 494kts
27-May-13 19:44 40.036604 -119.795817 174 37077ft 494kts
27-May-13 19:45 39.902350 -119.758530 174 37074ft 494kts
27-May-13 19:46 39.767637 -119.721149 174 37052ft 493kts
27-May-13 19:47 39.633901 -119.684279 174 37043ft 493kts
27-May-13 19:48 39.504494 -119.622814 145 37055ft 514kts
27-May-13 19:49 39.402050 -119.492144 137 37059ft 517kts
27-May-13 19:50 39.299331 -119.361983 137 37083ft 517kts
27-May-13 19:51 39.196425 -119.232454 137 37099ft 517kts
27-May-13 19:52 39.093515 -119.103429 138 37084ft 515kts
27-May-13 19:53 38.990519 -118.975152 138 37035ft 515kts
27-May-13 19:54 38.887357 -118.847269 138 37061ft 517kts
27-May-13 19:55 38.784154 -118.719879 138 37060ft 516kts
27-May-13 19:56 38.681328 -118.592566 138 37046ft 515kts
27-May-13 19:57 38.577203 -118.464851 138 37051ft 516kts
27-May-13 19:58 38.473787 -118.338723 138 37065ft 514kts
27-May-13 19:59 38.370326 -118.213190 138 37091ft 514kts
27-May-13 20:00 38.266620 -118.087818 138 37073ft 514kts
27-May-13 20:01 38.163392 -117.962468 138 37058ft 513kts
27-May-13 20:02 38.060210 -117.838607 138 37013ft 511kts
27-May-13 20:03 37.951285 -117.724653 149 37010ft 506kts
27-May-13 20:04 37.834429 -117.624592 149 37009ft 506kts
27-May-13 20:05 37.717992 -117.524631 149 37009ft 506kts
27-May-13 20:06 37.601711 -117.424350 149 37009ft 506kts
27-May-13 20:07 37.485521 -117.325190 149 36991ft 504kts
27-May-13 20:08 37.369385 -117.226480 149 36989ft 504kts
27-May-13 20:09 37.256027 -117.130583 149 36990ft 504kts
27-May-13 20:10 37.141837 -117.034133 151 36962ft 479kts
27-May-13 20:11 37.037861 -116.946225 153 36945ft 422kts
27-May-13 20:12 36.944728 -116.868013 153 36026ft 409kts
27-May-13 20:13 36.843559 -116.783503 153 31625ft 454kts
27-May-13 20:14 36.750406 -116.677003 137 28977ft 454kts
27-May-13 20:15 36.668595 -116.559843 137 26514ft 440kts
27-May-13 20:16 36.589492 -116.447004 136 24365ft 426kts
27-May-13 20:17 36.512686 -116.338316 135 22489ft 411kts
27-May-13 20:18 36.438343 -116.233576 135 20675ft 398kts
27-May-13 20:19 36.366488 -116.132220 135 18905ft 385kts
27-May-13 20:20 36.296469 -116.034116 135 17170ft 375kts
27-May-13 20:21 36.230528 -115.942074 136 16350ft 338kts
27-May-13 20:22 36.182604 -115.846617 114 15857ft 323kts
27-May-13 20:23 36.149371 -115.740936 113 14459ft 327kts
27-May-13 20:24 36.116382 -115.638421 112 13443ft 317kts
27-May-13 20:25 36.083951 -115.537838 113 12573ft 314kts
27-May-13 20:26 36.051640 -115.438508 113 11622ft 301kts
27-May-13 20:27 36.028077 -115.343158 97 10612ft 288kts
27-May-13 20:28 36.021580 -115.245138 95 9487ft 285kts
27-May-13 20:29 36.014969 -115.149354 95 8613ft 272kts
27-May-13 20:30 36.009092 -115.059886 94 8055ft 249kts
27-May-13 20:31 36.004107 -114.975299 94 8070ft 249kts
27-May-13 20:32 35.998909 -114.889906 94 8070ft 249kts
27-May-13 20:33 35.993651 -114.804804 94 8069ft 249kts
27-May-13 20:34 36.038229 -114.772253 320 8040ft 222kts
27-May-13 20:35 36.067909 -114.831597 292 8002ft 194kts
27-May-13 20:36 36.074067 -114.897354 268 7561ft 207kts
27-May-13 20:37 36.073643 -114.971408 268 5514ft 220kts
27-May-13 20:38 36.073734 -115.045282 266 3638ft 196kts
27-May-13 20:39 36.073626 -115.103788 267 2550ft 153kts
27-May-13 20:40 36.073818 -115.143202 279 2189ft 23kts
27-May-13 20:41 36.077366 -115.146592 350 2189ft 12kts
27-May-13 20:42 36.077955 -115.150360 273 2189ft 15kts
27-May-13 20:43 36.080414 -115.154330 333 2189ft 22kts
27-May-13 20:44 36.085194 -115.156304 36 2189ft 20kts
27-May-13 20:45 36.088669 -115.153770 49 2189ft 0kts
27-May-13 20:46 36.088669 -115.153770 49 2189ft 0kts

Navigation Log

Ident Type
1. CYVR Airport
2. YVR Navaid
3. SEA Navaid
4. TAOMA Fix
5. SUMMA Fix
6. POWEL Fix
7. LKV Navaid
8. BAARB Fix
9. HARTT Fix
10. PYRAM Fix
11. FMG Navaid
12. RYANN Fix
13. YERIN Fix
14. BABIT Fix
15. OAL Navaid
16. LIDAT Fix
17. BTY Navaid
18. MYCAL Fix
19. FUZZY Fix
20. TRAGR Fix
21. IPUMY Fix
22. NIPZO Fix
23. SUNST Fix
24. KIMME Fix
25. CHIPZ Fix
26. POKRR Fix
27. PRINO Fix
28. KLAS Airport